Time;durP1;ratioP1;P1;durP2;ratioP2;P2;SDS_P1;SDS_P2;PMS_P1;PMS_P2;Temp;Humidity;BMP_temperature;BMP_pressure;BME280_temperature;BME280_humidity;BME280_pressure;Samples;Min_cycle;Max_cycle;Signal;HPM_P1;HPM_P2
2022/10/04 00:00:11;;;;;;;11.77;7.67;;;15.30;69.40;;;;;;6252344;23;20694;-93
2022/10/04 00:02:44;;;;;;;14.70;8.07;;;15.30;69.20;;;;;;6252628;23;20172;-93
2022/10/04 00:05:18;;;;;;;23.63;9.63;;;15.20;69.30;;;;;;6256658;23;20160;-93
2022/10/04 00:07:52;;;;;;;16.10;8.83;;;15.20;69.60;;;;;;6256251;23;20179;-93
2022/10/04 00:13:38;;;;;;;13.37;8.60;;;15.20;69.60;;;;;;6256869;23;20175;-93
2022/10/04 00:16:06;;;;;;;17.53;9.23;;;15.20;69.50;;;;;;6248777;23;20167;-92
2022/10/04 00:18:40;;;;;;;15.97;8.43;;;15.10;69.50;;;;;;6252934;23;20504;-94
2022/10/04 00:21:11;;;;;;;14.37;9.03;;;15.10;69.80;;;;;;6259969;23;20175;-92
2022/10/04 00:23:45;;;;;;;8.43;6.77;;;15.10;69.80;;;;;;6265964;23;20255;-93
2022/10/04 00:26:55;;;;;;;14.93;8.47;;;15.00;69.90;;;;;;6249236;23;20192;-92
2022/10/04 00:29:38;;;;;;;15.10;8.23;;;15.00;70.40;;;;;;6188737;23;20175;-93
2022/10/04 00:32:26;;;;;;;12.13;7.67;;;15.00;70.30;;;;;;6249183;23;20178;-93
2022/10/04 00:34:56;;;;;;;11.93;7.90;;;15.00;70.40;;;;;;6248112;23;20200;-93
2022/10/04 00:37:58;;;;;;;12.30;7.93;;;15.00;70.10;;;;;;6247966;23;20169;-93
2022/10/04 00:40:30;;;;;;;22.07;8.67;;;14.90;70.70;;;;;;6246767;23;20253;-94
2022/10/04 00:43:08;;;;;;;17.13;9.50;;;14.90;70.20;;;;;;6246678;23;20217;-93
2022/10/04 00:45:40;;;;;;;14.53;8.97;;;14.90;70.20;;;;;;6246000;23;20182;-93
2022/10/04 00:48:35;;;;;;;15.47;9.07;;;14.90;70.30;;;;;;6250280;23;20264;-92
2022/10/04 00:51:10;;;;;;;17.27;10.10;;;14.80;71.00;;;;;;6236747;23;20198;-93
2022/10/04 00:53:56;;;;;;;18.90;10.00;;;14.80;70.40;;;;;;6256397;23;20173;-93
2022/10/04 00:56:30;;;;;;;15.57;8.73;;;14.80;71.10;;;;;;6249350;23;20202;-93
2022/10/04 00:59:24;;;;;;;12.47;8.87;;;14.80;70.90;;;;;;6249238;23;20181;-93
2022/10/04 01:01:59;;;;;;;13.47;9.17;;;14.80;71.40;;;;;;6249003;23;20627;-93
2022/10/04 01:04:33;;;;;;;17.53;9.87;;;14.80;71.80;;;;;;6247563;23;20205;-93
2022/10/04 01:07:11;;;;;;;17.77;10.63;;;14.80;71.40;;;;;;6248101;23;20173;-94
2022/10/04 01:10:00;;;;;;;16.97;10.30;;;14.80;71.50;;;;;;6226562;22;20206;-93
2022/10/04 01:13:01;;;;;;;14.47;8.97;;;14.70;71.60;;;;;;6247851;23;20178;-92
2022/10/04 01:15:37;;;;;;;16.13;9.87;;;14.70;71.60;;;;;;6220524;23;20278;-93
2022/10/04 01:18:28;;;;;;;18.53;10.07;;;14.70;71.30;;;;;;6247509;23;20262;-91
2022/10/04 01:21:04;;;;;;;18.17;9.73;;;14.70;71.80;;;;;;6246486;23;20178;-92
2022/10/04 01:23:49;;;;;;;24.73;10.60;;;14.70;71.60;;;;;;6246771;23;20177;-94
2022/10/04 01:26:39;;;;;;;22.60;11.17;;;14.60;72.00;;;;;;6246053;23;20619;-93
2022/10/04 01:29:14;;;;;;;15.63;9.40;;;14.60;72.40;;;;;;6246245;23;20646;-93
2022/10/04 01:31:45;;;;;;;16.17;9.67;;;14.60;72.10;;;;;;6247684;23;20167;-93
2022/10/04 01:34:17;;;;;;;20.90;10.20;;;14.60;72.10;;;;;;6248361;23;20196;-93
2022/10/04 01:36:48;;;;;;;15.40;9.53;;;14.60;72.40;;;;;;6250096;23;20233;-91
2022/10/04 01:39:19;;;;;;;18.70;10.00;;;14.60;72.30;;;;;;6251809;23;20205;-93
2022/10/04 01:41:54;;;;;;;12.90;9.23;;;14.50;72.10;;;;;;6248422;23;20163;-94
2022/10/04 01:44:40;;;;;;;14.90;9.40;;;14.50;72.30;;;;;;6248139;23;20267;-92
2022/10/04 01:50:13;;;;;;;15.00;9.13;;;14.50;72.80;;;;;;6224918;23;20622;-91
2022/10/04 01:52:44;;;;;;;15.93;9.90;;;14.50;72.30;;;;;;6246581;23;20629;-94
2022/10/04 01:55:24;;;;;;;16.13;9.53;;;14.50;72.50;;;;;;6245665;23;20268;-91
2022/10/04 01:57:57;;;;;;;16.27;9.50;;;14.40;72.90;;;;;;6246746;23;20556;-93
2022/10/04 02:00:25;;;;;;;17.10;9.20;;;14.40;73.20;;;;;;6248752;23;20174;-93
2022/10/04 02:03:02;;;;;;;16.83;9.13;;;14.40;72.30;;;;;;6196079;23;20655;-93
2022/10/04 02:05:34;;;;;;;14.77;9.70;;;14.40;72.50;;;;;;6254477;23;20527;-93
2022/10/04 02:08:05;;;;;;;23.47;12.13;;;14.40;72.60;;;;;;6245483;23;20202;-93
2022/10/04 02:10:38;;;;;;;15.77;9.47;;;14.30;72.70;;;;;;6246535;23;20233;-93
2022/10/04 02:13:10;;;;;;;20.47;10.70;;;14.40;72.70;;;;;;6245151;23;20199;-93
2022/10/04 02:15:39;;;;;;;13.60;9.57;;;14.40;72.60;;;;;;6246770;23;20233;-93
2022/10/04 02:18:19;;;;;;;20.90;10.83;;;14.30;72.90;;;;;;6246950;23;20549;-93
2022/10/04 02:20:49;;;;;;;14.10;9.20;;;14.30;74.20;;;;;;6249336;23;20171;-93
2022/10/04 02:23:20;;;;;;;12.23;9.13;;;14.30;73.10;;;;;;6249803;23;20221;-92
2022/10/04 02:25:50;;;;;;;16.97;11.27;;;14.30;73.60;;;;;;6254368;23;20192;-93
2022/10/04 02:28:20;;;;;;;18.97;10.50;;;14.30;73.60;;;;;;6251465;23;20171;-92
2022/10/04 02:33:55;;;;;;;20.90;11.30;;;14.20;73.60;;;;;;6254708;22;20231;-93
2022/10/04 02:36:29;;;;;;;12.23;9.00;;;14.20;73.50;;;;;;6266117;23;20612;-93
2022/10/04 02:39:15;;;;;;;16.47;9.87;;;14.20;73.90;;;;;;6229506;23;20170;-93
2022/10/04 02:41:52;;;;;;;19.63;10.47;;;14.20;74.30;;;;;;6250032;23;20252;-93
2022/10/04 02:44:25;;;;;;;17.67;10.57;;;14.10;73.80;;;;;;6252767;23;20201;-93
2022/10/04 02:52:54;;;;;;;14.77;9.93;;;14.10;74.20;;;;;;6212342;23;20179;-94
2022/10/04 02:55:26;;;;;;;23.33;11.43;;;14.10;75.00;;;;;;6258703;23;20199;-93
2022/10/04 02:58:09;;;;;;;16.53;9.87;;;14.10;74.50;;;;;;6253239;23;20169;-93
2022/10/04 03:00:48;;;;;;;18.77;10.97;;;14.10;75.30;;;;;;6255580;23;20198;-94
2022/10/04 03:03:22;;;;;;;15.93;10.03;;;14.10;75.40;;;;;;6255207;23;20230;-93
2022/10/04 03:06:00;;;;;;;14.27;9.50;;;14.10;75.40;;;;;;6265030;23;20239;-94
2022/10/04 03:08:30;;;;;;;21.37;11.63;;;14.10;75.90;;;;;;6261150;23;20500;-93
2022/10/04 03:10:59;;;;;;;25.37;12.60;;;14.10;75.30;;;;;;6253143;23;20234;-92
2022/10/04 03:13:28;;;;;;;24.30;11.87;;;14.10;75.50;;;;;;6247261;23;20505;-93
2022/10/04 03:15:56;;;;;;;16.97;9.73;;;14.00;75.60;;;;;;6246316;23;20511;-93
2022/10/04 03:18:36;;;;;;;;;;;;;;;;;;;;;
2022/10/04 03:23:43;;;;;;;20.10;10.07;;;14.00;76.70;;;;;;6263330;22;20218;-95
2022/10/04 03:26:29;;;;;;;18.67;10.33;;;14.00;76.00;;;;;;6267409;23;20469;-93
2022/10/04 03:28:59;;;;;;;18.07;10.50;;;14.00;76.90;;;;;;6249093;23;20482;-93
2022/10/04 03:32:16;;;;;;;18.90;10.27;;;14.00;76.50;;;;;;6264975;23;20201;-92
2022/10/04 03:34:52;;;;;;;17.43;10.20;;;14.00;77.50;;;;;;6266192;23;20250;-95
2022/10/04 03:37:20;;;;;;;22.43;11.27;;;14.00;77.00;;;;;;6262997;23;20162;-94
2022/10/04 03:39:51;;;;;;;20.93;10.23;;;13.90;76.70;;;;;;6248684;23;20249;-93
2022/10/04 03:45:17;;;;;;;23.00;10.97;;;13.90;77.00;;;;;;6243056;23;20182;-94
2022/10/04 03:47:49;;;;;;;19.27;10.47;;;13.90;77.80;;;;;;6246815;23;20175;-93
2022/10/04 03:50:19;;;;;;;19.33;10.13;;;13.90;77.50;;;;;;6245195;23;20174;-93
2022/10/04 03:52:52;;;;;;;27.57;11.73;;;13.90;77.40;;;;;;6246083;23;20173;-93
2022/10/04 03:55:24;;;;;;;23.77;11.87;;;13.90;77.80;;;;;;6246656;23;20220;-94
2022/10/04 03:57:52;;;;;;;16.97;10.10;;;13.90;77.70;;;;;;6220406;23;20213;-93
2022/10/04 04:00:21;;;;;;;22.20;11.53;;;13.90;77.60;;;;;;6249369;23;20181;-93
2022/10/04 04:02:52;;;;;;;27.60;12.53;;;13.80;77.60;;;;;;6245391;23;20179;-93
2022/10/04 04:05:24;;;;;;;20.37;11.43;;;13.80;77.70;;;;;;6247457;23;20178;-92
2022/10/04 04:08:02;;;;;;;18.50;9.97;;;13.80;77.90;;;;;;6249654;23;20240;-93
2022/10/04 04:10:33;;;;;;;19.37;10.10;;;13.90;78.50;;;;;;6244991;23;20174;-93
2022/10/04 04:13:20;;;;;;;24.80;12.03;;;13.90;78.00;;;;;;6245124;23;20175;-92
2022/10/04 04:15:49;;;;;;;20.00;10.27;;;13.90;78.40;;;;;;6245369;23;20192;-94
2022/10/04 04:18:26;;;;;;;23.27;11.80;;;13.90;77.70;;;;;;6247022;23;20169;-93
2022/10/04 04:20:57;;;;;;;20.53;11.17;;;13.90;78.60;;;;;;6249371;23;20173;-93
2022/10/04 04:23:30;;;;;;;14.70;9.37;;;13.80;78.30;;;;;;6248551;23;20858;-93
2022/10/04 04:26:19;;;;;;;23.00;10.97;;;13.80;78.50;;;;;;6253190;23;20171;-92
2022/10/04 04:28:50;;;;;;;16.67;9.83;;;13.90;79.40;;;;;;6261587;23;20180;-94
2022/10/04 04:31:22;;;;;;;16.93;10.00;;;13.80;78.50;;;;;;6257581;23;20168;-94
2022/10/04 04:33:59;;;;;;;15.97;9.90;;;13.80;78.60;;;;;;6249125;23;20174;-93
2022/10/04 04:36:30;;;;;;;17.40;9.90;;;13.80;79.00;;;;;;6249846;23;20225;-93
2022/10/04 04:44:51;;;;;;;16.33;10.17;;;13.90;78.80;;;;;;6250234;23;20200;-93
2022/10/04 04:47:30;;;;;;;15.67;10.20;;;13.80;79.30;;;;;;6249715;23;20178;-93
2022/10/04 04:50:06;;;;;;;18.00;9.90;;;13.80;79.30;;;;;;6250714;23;20167;-94
2022/10/04 04:52:35;;;;;;;13.57;9.10;;;13.80;78.90;;;;;;6256342;23;20186;-93
2022/10/04 04:55:15;;;;;;;22.27;10.77;;;13.90;79.20;;;;;;6249210;23;20176;-93
2022/10/04 04:57:46;;;;;;;22.87;10.67;;;13.90;79.70;;;;;;6247424;23;20174;-92
2022/10/04 05:03:22;;;;;;;19.63;10.60;;;13.90;80.40;;;;;;6248095;23;20179;-93
2022/10/04 05:05:53;;;;;;;20.30;10.93;;;13.90;80.50;;;;;;6249891;23;20234;-93
2022/10/04 05:08:23;;;;;;;19.63;10.67;;;13.90;80.10;;;;;;6243791;23;20673;-92
2022/10/04 05:10:59;;;;;;;19.13;9.97;;;13.90;80.10;;;;;;6244623;23;20181;-92
2022/10/04 05:13:47;;;;;;;17.70;10.03;;;13.90;80.40;;;;;;6244994;23;20169;-93
2022/10/04 05:16:21;;;;;;;19.00;10.63;;;13.90;81.10;;;;;;6217032;23;20300;-93
2022/10/04 05:18:56;;;;;;;22.47;11.20;;;13.90;81.00;;;;;;6243250;23;20241;-91
2022/10/04 05:21:25;;;;;;;16.00;9.87;;;13.90;81.30;;;;;;6244069;23;20173;-93
2022/10/04 05:24:29;;;;;;;24.00;11.53;;;13.90;80.70;;;;;;6244921;23;20174;-93
2022/10/04 05:26:59;;;;;;;19.27;10.33;;;13.90;82.00;;;;;;6244107;23;20174;-92
2022/10/04 05:29:31;;;;;;;18.43;10.30;;;13.90;80.90;;;;;;6243142;23;20170;-93
2022/10/04 05:32:26;;;;;;;17.53;10.17;;;13.90;81.30;;;;;;6245540;23;20178;-93
2022/10/04 05:35:26;;;;;;;20.33;11.27;;;13.90;82.20;;;;;;6244986;23;20184;-91
2022/10/04 05:38:03;;;;;;;30.37;13.07;;;13.90;82.10;;;;;;6253377;23;20181;-92
2022/10/04 05:43:53;;;;;;;23.53;11.90;;;13.90;81.50;;;;;;6253148;22;20193;-93
2022/10/04 05:46:25;;;;;;;17.50;10.03;;;14.00;82.10;;;;;;6200721;23;20202;-94
2022/10/04 05:48:54;;;;;;;29.33;13.53;;;13.90;81.30;;;;;;6249071;22;20198;-93
2022/10/04 05:51:26;;;;;;;20.43;10.73;;;13.90;81.10;;;;;;6242517;23;20219;-93
2022/10/04 05:53:59;;;;;;;20.57;11.20;;;13.90;81.30;;;;;;6246092;23;20234;-93
2022/10/04 05:56:52;;;;;;;19.43;10.87;;;13.90;81.30;;;;;;6246356;23;20215;-92
2022/10/04 05:59:38;;;;;;;14.77;10.50;;;13.80;81.40;;;;;;6247026;23;20268;-90
2022/10/04 06:02:24;;;;;;;21.87;12.13;;;13.80;81.40;;;;;;6244956;23;20204;-90
2022/10/04 06:05:04;;;;;;;14.67;10.27;;;13.80;81.70;;;;;;6256729;23;20168;-90
2022/10/04 06:07:40;;;;;;;15.47;9.27;;;13.80;81.40;;;;;;6256270;23;20248;-90
2022/10/04 06:10:29;;;;;;;22.70;12.47;;;13.80;81.20;;;;;;6243186;23;20263;-91
2022/10/04 06:13:04;;;;;;;29.00;12.57;;;13.80;82.00;;;;;;6245438;23;20194;-92
2022/10/04 06:16:06;;;;;;;21.43;12.03;;;13.80;81.50;;;;;;6248405;23;20510;-90
2022/10/04 06:18:59;;;;;;;21.77;11.13;;;13.70;82.60;;;;;;6179965;23;20172;-90
2022/10/04 06:21:27;;;;;;;25.70;12.20;;;13.70;82.50;;;;;;6245254;23;20194;-93
2022/10/04 06:24:01;;;;;;;18.73;10.23;;;13.70;81.80;;;;;;6249776;23;20193;-90
2022/10/04 06:26:39;;;;;;;21.40;11.53;;;13.70;82.90;;;;;;6245681;23;20165;-91
2022/10/04 06:29:12;;;;;;;24.57;12.43;;;13.70;83.30;;;;;;6247225;23;20178;-91
2022/10/04 06:32:10;;;;;;;21.57;11.57;;;13.70;83.80;;;;;;6243133;23;20282;-91
2022/10/04 06:35:03;;;;;;;20.53;11.13;;;13.70;84.20;;;;;;6246704;23;20176;-94
2022/10/04 06:38:06;;;;;;;18.97;11.60;;;13.70;84.30;;;;;;6260345;23;20281;-94
2022/10/04 06:40:59;;;;;;;19.53;11.10;;;13.70;84.40;;;;;;6190118;23;20179;-90
2022/10/04 06:44:03;;;;;;;25.67;13.20;;;13.70;84.90;;;;;;6243509;23;20250;-91
2022/10/04 06:46:44;;;;;;;22.50;11.13;;;13.70;84.70;;;;;;6244003;23;20212;-92
2022/10/04 06:49:30;;;;;;;27.90;13.60;;;13.70;85.10;;;;;;6258797;23;20476;-91
2022/10/04 06:52:26;;;;;;;15.20;10.67;;;13.70;85.30;;;;;;6259446;22;20206;-92
2022/10/04 06:55:23;;;;;;;19.23;11.50;;;13.70;85.60;;;;;;6256711;23;20188;-91
2022/10/04 06:58:17;;;;;;;23.40;12.37;;;13.70;86.20;;;;;;6228693;23;20185;-91
2022/10/04 07:00:53;;;;;;;23.80;12.80;;;13.80;86.00;;;;;;6251376;23;20227;-91
2022/10/04 07:03:26;;;;;;;22.70;13.50;;;13.80;85.80;;;;;;6262276;22;20197;-93
2022/10/04 07:06:00;;;;;;;20.20;12.97;;;13.80;86.50;;;;;;6266285;22;20180;-92
2022/10/04 07:08:46;;;;;;;21.10;11.20;;;13.80;86.50;;;;;;6260072;23;20221;-92
2022/10/04 07:11:18;;;;;;;23.40;12.43;;;13.90;87.60;;;;;;6255731;23;20253;-92
2022/10/04 07:13:55;;;;;;;21.27;12.40;;;13.90;86.80;;;;;;6258893;23;20175;-89
2022/10/04 07:16:36;;;;;;;23.67;13.27;;;13.90;87.60;;;;;;6256148;23;20269;-90
2022/10/04 07:19:30;;;;;;;23.20;12.40;;;13.90;88.00;;;;;;6255299;23;20171;-91
2022/10/04 07:22:04;;;;;;;23.23;12.77;;;14.00;88.20;;;;;;6249030;23;20174;-92
2022/10/04 07:24:44;;;;;;;22.63;13.40;;;14.00;87.60;;;;;;6244662;23;20171;-89
2022/10/04 07:27:17;;;;;;;29.73;14.60;;;14.10;88.50;;;;;;6248715;23;20161;-94
2022/10/04 07:29:51;;;;;;;25.53;13.43;;;14.10;88.60;;;;;;6247068;23;20201;-89
2022/10/04 07:32:22;;;;;;;33.03;15.17;;;14.10;88.20;;;;;;6246882;23;20171;-92
2022/10/04 07:34:54;;;;;;;24.17;13.07;;;14.20;88.70;;;;;;6247404;23;20198;-90
2022/10/04 07:37:23;;;;;;;24.43;12.90;;;14.20;88.60;;;;;;6246846;23;20246;-94
2022/10/04 07:40:07;;;;;;;26.03;14.13;;;14.30;88.10;;;;;;6222354;23;20177;-94
2022/10/04 07:42:39;;;;;;;24.63;14.57;;;14.30;88.80;;;;;;6248390;23;20190;-94
2022/10/04 07:45:17;;;;;;;21.90;12.53;;;14.40;88.50;;;;;;6250630;23;20174;-91
2022/10/04 07:47:46;;;;;;;30.90;15.07;;;14.50;88.90;;;;;;6241076;23;20743;-90
2022/10/04 07:50:22;;;;;;;24.57;12.63;;;14.50;88.20;;;;;;6241077;23;20172;-89
2022/10/04 07:52:56;;;;;;;21.70;13.20;;;14.60;89.10;;;;;;6242267;23;20261;-91
2022/10/04 07:55:32;;;;;;;26.03;13.70;;;14.60;88.60;;;;;;6244311;23;20170;-93
2022/10/04 07:58:18;;;;;;;22.47;13.03;;;14.60;88.50;;;;;;6241931;23;20224;-90
2022/10/04 08:00:54;;;;;;;25.63;13.77;;;14.70;88.80;;;;;;6243980;23;20995;-90
2022/10/04 08:03:43;;;;;;;27.60;14.73;;;14.80;88.50;;;;;;6243236;23;20168;-91
2022/10/04 08:06:18;;;;;;;28.07;14.53;;;14.80;88.10;;;;;;6243254;23;20513;-89
2022/10/04 08:09:24;;;;;;;22.80;13.47;;;14.90;87.70;;;;;;6242461;23;20167;-90
2022/10/04 08:12:02;;;;;;;30.67;13.87;;;14.90;88.10;;;;;;6232863;23;20175;-90
2022/10/04 08:14:44;;;;;;;24.23;14.20;;;15.00;88.20;;;;;;6241340;23;20189;-89
2022/10/04 08:17:41;;;;;;;23.93;13.73;;;15.00;88.40;;;;;;6241220;23;20225;-91
2022/10/04 08:20:27;;;;;;;22.43;12.77;;;15.10;88.70;;;;;;6240801;23;20254;-90
2022/10/04 08:23:07;;;;;;;24.57;13.60;;;15.10;88.40;;;;;;6241617;23;20560;-91
2022/10/04 08:25:45;;;;;;;24.87;14.50;;;15.20;88.00;;;;;;6222950;23;20178;-91
2022/10/04 08:31:55;;;;;;;26.53;14.03;;;15.30;89.20;;;;;;6257425;23;20162;-95
2022/10/04 08:34:41;;;;;;;19.13;12.33;;;15.40;88.90;;;;;;6256187;23;20170;-94
2022/10/04 08:37:29;;;;;;;24.27;13.37;;;15.50;88.60;;;;;;6257016;23;20210;-94
2022/10/04 08:40:25;;;;;;;19.13;11.70;;;15.60;88.30;;;;;;6262254;22;20207;-91
2022/10/04 08:43:33;;;;;;;22.73;13.33;;;15.70;88.10;;;;;;6198690;23;20191;-89
2022/10/04 08:46:41;;;;;;;20.13;12.50;;;15.80;87.60;;;;;;6224751;23;20197;-93
2022/10/04 08:49:43;;;;;;;26.33;13.33;;;15.90;86.60;;;;;;6226032;23;20204;-90
2022/10/04 08:52:49;;;;;;;23.93;13.27;;;16.00;86.30;;;;;;6226099;23;20182;-91
2022/10/04 08:55:57;;;;;;;19.97;12.10;;;16.10;86.40;;;;;;6228943;23;20218;-93
2022/10/04 08:59:05;;;;;;;24.13;13.77;;;16.20;85.70;;;;;;6223599;23;20266;-92
2022/10/04 09:01:57;;;;;;;26.73;14.03;;;16.30;85.40;;;;;;6224581;23;20232;-93
2022/10/04 09:05:01;;;;;;;21.67;13.37;;;16.30;85.00;;;;;;6223326;23;20173;-90
2022/10/04 09:08:05;;;;;;;19.67;12.40;;;16.40;85.10;;;;;;6225578;23;20528;-92
2022/10/04 09:10:46;;;;;;;18.03;12.27;;;16.50;85.60;;;;;;6207101;23;20244;-91
2022/10/04 09:13:52;;;;;;;23.97;14.20;;;16.60;86.10;;;;;;6218278;23;20171;-91
2022/10/04 09:16:47;;;;;;;21.17;12.50;;;16.70;85.00;;;;;;6231769;23;20175;-93
2022/10/04 09:19:28;;;;;;;24.13;13.50;;;16.90;84.50;;;;;;6232064;23;20214;-93
2022/10/04 09:22:19;;;;;;;24.53;13.30;;;17.00;84.60;;;;;;6238880;22;20153;-94
2022/10/04 09:25:25;;;;;;;20.47;11.77;;;17.10;84.70;;;;;;6228355;23;20201;-91
2022/10/04 09:28:44;;;;;;;22.17;12.67;;;17.30;84.20;;;;;;6229291;23;20206;-94
2022/10/04 09:31:55;;;;;;;19.90;12.10;;;17.60;83.50;;;;;;6136503;23;20177;-94
2022/10/04 09:34:51;;;;;;;25.13;13.47;;;17.80;82.70;;;;;;6139202;23;20174;-94
2022/10/04 09:37:41;;;;;;;21.13;11.73;;;18.00;81.10;;;;;;6228686;23;20215;-94
2022/10/04 09:40:49;;;;;;;19.50;11.77;;;18.30;80.10;;;;;;6233286;23;20182;-96
2022/10/04 09:43:59;;;;;;;28.50;14.93;;;18.40;78.60;;;;;;6237347;22;20194;-95
2022/10/04 09:46:56;;;;;;;22.67;13.70;;;18.60;77.80;;;;;;6240092;22;20171;-92
2022/10/04 09:49:47;;;;;;;20.90;12.07;;;18.70;78.20;;;;;;6232087;23;20211;-92
2022/10/04 09:52:31;;;;;;;16.50;10.97;;;18.80;77.30;;;;;;6227094;23;20198;-93
2022/10/04 09:55:22;;;;;;;20.73;10.87;;;18.90;76.70;;;;;;6222555;23;20180;-93
2022/10/04 09:58:04;;;;;;;19.00;11.67;;;19.00;76.50;;;;;;6233462;23;20200;-93
2022/10/04 10:00:44;;;;;;;16.03;10.93;;;19.20;76.70;;;;;;6226389;23;20173;-91
2022/10/04 10:03:30;;;;;;;18.93;11.03;;;19.20;76.40;;;;;;6228306;23;20172;-90
2022/10/04 10:06:39;;;;;;;21.20;11.83;;;19.40;76.40;;;;;;6232425;23;20152;-93
2022/10/04 10:13:38;;;;;;;16.30;10.20;;;19.50;76.10;;;;;;6141671;23;20184;-90
2022/10/04 10:15:21;;;;;;;18.70;9.90;;;19.80;75.60;;;;;;6144566;23;20295;-94
2022/10/04 10:17:57;;;;;;;20.23;11.90;;;20.00;74.80;;;;;;6143812;23;20202;-91
2022/10/04 10:21:06;;;;;;;16.07;9.73;;;20.20;74.90;;;;;;6131409;23;20817;-92
2022/10/04 10:24:02;;;;;;;16.30;10.10;;;20.30;74.50;;;;;;6129077;23;20225;-90
2022/10/04 10:26:57;;;;;;;19.87;10.73;;;20.50;73.10;;;;;;6215973;23;20245;-90
2022/10/04 10:29:51;;;;;;;15.60;9.83;;;20.70;73.20;;;;;;6217282;23;20168;-92
2022/10/04 10:32:57;;;;;;;16.33;9.77;;;20.80;72.60;;;;;;6211097;23;20172;-90
2022/10/04 10:36:09;;;;;;;15.37;10.23;;;20.90;72.40;;;;;;6219537;23;20920;-91
2022/10/04 10:38:57;;;;;;;16.13;9.97;;;21.10;73.00;;;;;;6235394;23;20192;-92
2022/10/04 10:41:52;;;;;;;13.00;8.03;;;21.30;72.00;;;;;;6238024;23;20287;-94
2022/10/04 10:44:35;;;;;;;12.70;9.27;;;21.40;71.00;;;;;;6237583;23;20180;-93
2022/10/04 10:47:30;;;;;;;17.50;9.30;;;21.60;72.00;;;;;;6239518;23;20172;-92
2022/10/04 10:50:58;;;;;;;14.73;9.10;;;21.70;71.10;;;;;;6227041;23;20179;-92
2022/10/04 10:54:12;;;;;;;17.00;9.30;;;21.90;70.20;;;;;;6168746;23;20182;-92
2022/10/04 10:56:52;;;;;;;11.93;7.93;;;22.10;70.10;;;;;;6216351;23;20186;-91
2022/10/04 11:03:11;;;;;;;15.70;9.50;;;22.40;69.50;;;;;;6218075;23;20282;-93
2022/10/04 11:06:13;;;;;;;15.80;8.80;;;22.60;69.00;;;;;;6215175;23;20261;-93
2022/10/04 11:13:03;;;;;;;11.20;7.83;;;22.90;69.10;;;;;;6214210;23;20239;-95
2022/10/04 11:16:05;;;;;;;14.57;8.70;;;22.90;68.40;;;;;;6206076;23;20824;-91
2022/10/04 11:19:28;;;;;;;11.20;8.20;;;23.10;68.00;;;;;;6218454;23;20731;-92
2022/10/04 11:22:44;;;;;;;12.63;8.03;;;23.20;68.00;;;;;;6216230;23;20172;-91
2022/10/04 11:25:36;;;;;;;12.87;7.97;;;23.30;67.60;;;;;;6216944;23;20244;-95
2022/10/04 11:28:15;;;;;;;13.60;8.90;;;23.30;67.40;;;;;;6214839;23;20223;-94
2022/10/04 11:31:16;;;;;;;9.90;7.87;;;23.50;67.00;;;;;;6214927;23;20172;-92
2022/10/04 11:34:10;;;;;;;11.00;7.77;;;23.50;66.80;;;;;;6209636;23;20207;-94
2022/10/04 11:36:56;;;;;;;15.43;8.00;;;23.60;66.20;;;;;;6237657;22;20173;-92
2022/10/04 11:39:49;;;;;;;9.83;6.87;;;23.70;66.30;;;;;;6221945;23;20238;-94
2022/10/04 11:42:39;;;;;;;13.37;8.13;;;23.70;65.50;;;;;;6219113;23;20504;-92
2022/10/04 11:45:32;;;;;;;10.33;6.13;;;23.80;65.30;;;;;;6219148;23;20171;-92
2022/10/04 11:48:15;;;;;;;10.63;7.33;;;23.90;65.40;;;;;;6216498;23;20212;-90
2022/10/04 11:51:11;;;;;;;9.60;6.80;;;23.80;65.60;;;;;;6213881;23;20168;-91
2022/10/04 11:54:12;;;;;;;11.00;6.87;;;23.90;65.50;;;;;;6214163;23;20175;-92
2022/10/04 11:57:05;;;;;;;11.27;6.90;;;24.00;65.20;;;;;;6215074;23;20176;-92
2022/10/04 11:59:52;;;;;;;7.57;6.13;;;24.10;65.30;;;;;;6216589;23;20723;-90
2022/10/04 12:03:06;;;;;;;11.10;7.33;;;24.20;65.30;;;;;;6213752;23;20176;-89
2022/10/04 12:05:55;;;;;;;12.40;6.63;;;24.20;64.50;;;;;;6215883;23;20179;-94
2022/10/04 12:09:06;;;;;;;9.90;6.67;;;24.40;65.40;;;;;;6215593;23;20231;-94
2022/10/04 12:12:40;;;;;;;13.53;7.33;;;24.40;64.70;;;;;;6215713;23;20246;-90
2022/10/04 12:15:38;;;;;;;11.20;6.63;;;24.50;64.40;;;;;;6215160;23;20172;-93
2022/10/04 12:18:43;;;;;;;12.27;7.20;;;24.60;64.10;;;;;;6215692;23;20196;-93
2022/10/04 12:22:02;;;;;;;11.33;6.90;;;24.70;63.60;;;;;;6216492;23;20164;-91
2022/10/04 12:24:58;;;;;;;11.97;7.40;;;24.70;63.50;;;;;;6156408;23;20185;-91
2022/10/04 12:27:52;;;;;;;11.90;7.57;;;24.80;63.40;;;;;;6215917;23;20211;-92
2022/10/04 12:31:06;;;;;;;9.30;6.73;;;24.90;63.30;;;;;;6219894;23;20176;-96
2022/10/04 12:33:39;;;;;;;10.97;7.13;;;25.00;63.50;;;;;;6221345;23;20168;-92
2022/10/04 12:36:35;;;;;;;12.17;7.43;;;25.00;63.80;;;;;;6218139;23;20218;-93
2022/10/04 12:39:35;;;;;;;11.07;6.67;;;25.10;63.10;;;;;;6215462;23;20204;-92
2022/10/04 12:42:25;;;;;;;12.23;7.03;;;25.20;62.60;;;;;;6212121;23;20275;-92
2022/10/04 12:45:12;;;;;;;8.70;5.83;;;25.30;61.60;;;;;;6220950;23;20259;-94
2022/10/04 12:48:04;;;;;;;11.43;6.90;;;25.30;62.10;;;;;;6218993;23;20168;-92
2022/10/04 12:50:49;;;;;;;11.67;6.50;;;25.40;61.20;;;;;;6223079;23;20176;-92
2022/10/04 12:53:34;;;;;;;10.50;6.43;;;25.40;61.40;;;;;;6221836;23;20191;-91
2022/10/04 12:56:17;;;;;;;8.20;6.07;;;25.40;61.60;;;;;;6218798;23;20183;-92
2022/10/04 12:59:21;;;;;;;11.20;6.17;;;25.50;61.60;;;;;;6217624;23;20195;-94
2022/10/04 13:02:19;;;;;;;9.77;6.10;;;25.40;60.90;;;;;;6217225;23;20176;-94
2022/10/04 13:04:50;;;;;;;9.10;5.57;;;25.40;60.70;;;;;;6222398;23;20184;-94
2022/10/04 13:07:52;;;;;;;10.20;5.97;;;25.40;60.70;;;;;;6214736;23;20196;-90
2022/10/04 13:10:43;;;;;;;8.73;5.47;;;25.40;60.20;;;;;;6214830;23;20237;-94
2022/10/04 13:13:41;;;;;;;8.13;5.40;;;25.30;60.30;;;;;;6215476;23;20199;-93
2022/10/04 13:16:15;;;;;;;8.67;5.93;;;25.30;60.90;;;;;;6194806;23;20184;-91
2022/10/04 13:18:55;;;;;;;11.67;7.20;;;25.30;61.20;;;;;;6216068;23;20229;-93
2022/10/04 13:21:59;;;;;;;7.47;5.10;;;25.30;61.00;;;;;;6215829;23;20195;-92
2022/10/04 13:24:53;;;;;;;10.57;5.83;;;25.30;60.80;;;;;;6215262;23;20176;-93
2022/10/04 13:27:40;;;;;;;9.03;6.40;;;25.30;61.40;;;;;;6219172;23;20249;-91
2022/10/04 13:30:17;;;;;;;9.27;5.33;;;25.30;60.80;;;;;;6222412;22;20176;-90
2022/10/04 13:32:55;;;;;;;10.40;5.87;;;25.30;60.60;;;;;;6221886;23;20218;-92
2022/10/04 13:35:37;;;;;;;6.77;5.20;;;25.30;60.00;;;;;;6234394;23;20192;-94
2022/10/04 13:38:30;;;;;;;9.70;6.30;;;25.30;59.80;;;;;;6238254;22;20219;-93
2022/10/04 13:41:22;;;;;;;8.37;5.43;;;25.30;59.80;;;;;;6211408;23;20187;-91
2022/10/04 13:44:20;;;;;;;7.07;4.40;;;25.20;59.60;;;;;;6237719;23;20164;-90
2022/10/04 13:47:24;;;;;;;11.00;5.17;;;25.10;59.70;;;;;;6235036;23;20282;-92
2022/10/04 13:50:12;;;;;;;11.40;5.43;;;25.10;59.60;;;;;;6241486;22;20167;-94
2022/10/04 13:58:39;;;;;;;9.03;4.70;;;24.80;59.70;;;;;;6230575;23;20202;-92
2022/10/04 14:01:59;;;;;;;8.83;5.27;;;24.70;60.00;;;;;;6205237;23;20178;-95
2022/10/04 14:04:59;;;;;;;10.87;5.70;;;24.60;60.10;;;;;;6067188;23;20664;-92
2022/10/04 14:07:49;;;;;;;9.53;5.37;;;24.50;60.10;;;;;;6082869;23;20668;-93
2022/10/04 14:10:48;;;;;;;8.13;4.97;;;24.40;60.40;;;;;;6221810;23;20287;-92
2022/10/04 14:14:04;;;;;;;9.53;4.33;;;24.30;60.10;;;;;;6233520;23;20175;-95
2022/10/04 14:16:59;;;;;;;6.07;3.73;;;24.20;60.50;;;;;;6225006;23;20183;-92
2022/10/04 14:20:22;;;;;;;9.90;5.10;;;24.10;60.70;;;;;;6203333;23;20207;-96
2022/10/04 14:23:37;;;;;;;8.83;4.57;;;24.00;60.90;;;;;;6214628;23;20215;-93
2022/10/04 14:26:41;;;;;;;8.53;4.53;;;23.90;61.10;;;;;;6194566;23;20533;-91
2022/10/04 14:30:13;;;;;;;12.43;6.40;;;23.80;61.20;;;;;;6215859;23;20239;-92
2022/10/04 14:33:11;;;;;;;7.87;4.30;;;23.80;61.30;;;;;;6221541;23;20170;-94
2022/10/04 14:35:52;;;;;;;6.33;3.87;;;23.70;61.50;;;;;;6221518;23;20188;-92
2022/10/04 14:38:38;;;;;;;7.47;4.00;;;23.60;61.60;;;;;;6227549;23;20648;-94
2022/10/04 14:41:44;;;;;;;5.00;2.73;;;23.60;61.40;;;;;;6227330;23;20180;-91
2022/10/04 14:44:34;;;;;;;5.90;2.93;;;23.50;60.70;;;;;;6223812;23;20172;-91
2022/10/04 14:47:27;;;;;;;6.77;3.57;;;23.50;60.90;;;;;;6224476;23;20199;-93
2022/10/04 14:50:20;;;;;;;5.60;3.03;;;23.40;61.10;;;;;;6219440;23;20189;-94
2022/10/04 14:53:20;;;;;;;4.57;2.57;;;23.30;61.00;;;;;;6223167;23;20208;-91
2022/10/04 14:56:19;;;;;;;6.37;3.27;;;23.30;61.30;;;;;;6223231;23;20170;-92
2022/10/04 14:58:59;;;;;;;9.10;3.77;;;23.20;61.40;;;;;;6216047;23;20203;-91